Time,TemperatureF,DewpointF,PressureIn,WindDirection,WindDirectionDegrees,WindSpeedMPH,WindSpeedGustMPH,Humidity,HourlyPrecipIn,Conditions,Clouds,dailyrainin,SolarRadiationWatts/m^2,SoftwareType,DateUTC
2013-05-07 00:21:00,49.0,21.0,-100.00,WNW,288,4.0,11.0,33,0.00,,,0.00,616.000000,,2013-05-07 00:21:00,
2013-05-07 00:31:00,49.0,21.0,-100.00,WNW,288,4.0,11.0,33,0.00,,,0.00,616.000000,,2013-05-07 00:31:00,
2013-05-07 00:41:00,49.0,21.0,-100.00,WNW,288,4.0,11.0,33,0.00,,,0.00,616.000000,,2013-05-07 00:41:00,
2013-05-07 00:51:00,49.0,21.0,-100.00,WNW,288,4.0,11.0,33,0.00,,,0.00,616.000000,,2013-05-07 00:51:00,
2013-05-07 01:21:00,48.0,20.0,-100.00,West,269,5.0,10.0,32,0.00,,,0.00,592.000000,,2013-05-07 01:21:00,
2013-05-07 01:31:00,48.0,20.0,-100.00,West,269,5.0,10.0,32,0.00,,,0.00,592.000000,,2013-05-07 01:31:00,
2013-05-07 01:42:00,48.0,20.0,-100.00,West,269,5.0,10.0,32,0.00,,,0.00,592.000000,,2013-05-07 01:42:00,
2013-05-07 01:52:00,48.0,20.0,-100.00,West,269,5.0,10.0,32,0.00,,,0.00,592.000000,,2013-05-07 01:52:00,
2013-05-07 02:21:00,48.0,20.0,-100.00,NW,314,4.0,9.0,32,0.00,,,0.00,313.000000,,2013-05-07 02:21:00,
2013-05-07 02:31:00,48.0,20.0,-100.00,NW,314,4.0,9.0,32,0.00,,,0.00,313.000000,,2013-05-07 02:31:00,
2013-05-07 02:41:00,48.0,20.0,-100.00,NW,314,4.0,9.0,32,0.00,,,0.00,313.000000,,2013-05-07 02:41:00,
2013-05-07 02:51:00,48.0,20.0,-100.00,NW,314,4.0,9.0,32,0.00,,,0.00,313.000000,,2013-05-07 02:51:00,
2013-05-07 03:21:00,46.0,19.0,-100.00,WNW,291,3.0,9.0,34,0.00,,,0.00,257.000000,,2013-05-07 03:21:00,
2013-05-07 03:32:00,46.0,19.0,-100.00,WNW,291,3.0,9.0,34,0.00,,,0.00,257.000000,,2013-05-07 03:32:00,
2013-05-07 03:42:00,46.0,19.0,-100.00,WNW,291,3.0,9.0,34,0.00,,,0.00,257.000000,,2013-05-07 03:42:00,
2013-05-07 03:53:00,46.0,19.0,-100.00,WNW,291,3.0,9.0,34,0.00,,,0.00,257.000000,,2013-05-07 03:53:00,
2013-05-07 04:23:00,44.0,21.0,-100.00,WNW,290,1.0,6.0,39,0.00,,,0.00,129.000000,,2013-05-07 04:23:00,
2013-05-07 04:33:00,44.0,21.0,-100.00,WNW,290,1.0,6.0,39,0.00,,,0.00,129.000000,,2013-05-07 04:33:00,
2013-05-07 04:42:00,44.0,21.0,-100.00,WNW,290,1.0,6.0,39,0.00,,,0.00,129.000000,,2013-05-07 04:42:00,
2013-05-07 04:52:00,44.0,21.0,-100.00,WNW,290,1.0,6.0,39,0.00,,,0.00,129.000000,,2013-05-07 04:52:00,
2013-05-07 05:22:00,42.0,22.0,-100.00,SW,233,2.0,4.0,45,0.00,,,0.00,61.000000,,2013-05-07 05:22:00,
2013-05-07 05:32:00,42.0,22.0,-100.00,SW,233,2.0,4.0,45,0.00,,,0.00,61.000000,,2013-05-07 05:32:00,
2013-05-07 05:42:00,42.0,22.0,-100.00,SW,233,2.0,4.0,45,0.00,,,0.00,61.000000,,2013-05-07 05:42:00,
2013-05-07 05:51:00,42.0,22.0,-100.00,SW,233,2.0,4.0,45,0.00,,,0.00,61.000000,,2013-05-07 05:51:00,
2013-05-07 06:22:00,38.0,21.0,-100.00,WSW,241,2.0,4.0,50,0.00,,,-99.99,15.000000,,2013-05-07 06:22:00,
2013-05-07 06:32:00,38.0,21.0,-100.00,WSW,241,2.0,4.0,50,0.00,,,-99.99,15.000000,,2013-05-07 06:32:00,
2013-05-07 06:42:00,38.0,21.0,-100.00,WSW,241,2.0,4.0,50,0.00,,,-99.99,15.000000,,2013-05-07 06:42:00,
2013-05-07 06:52:00,38.0,21.0,-100.00,WSW,241,2.0,4.0,50,0.00,,,-99.99,15.000000,,2013-05-07 06:52:00,
2013-05-07 07:22:00,33.0,22.0,-100.00,East,80,0.0,4.0,64,0.00,,,0.00,0.000000,,2013-05-07 07:22:00,
2013-05-07 07:31:00,33.0,22.0,-100.00,East,80,0.0,4.0,64,0.00,,,0.00,0.000000,,2013-05-07 07:31:00,
2013-05-07 07:42:00,33.0,22.0,-100.00,East,80,0.0,4.0,64,0.00,,,0.00,0.000000,,2013-05-07 07:42:00,
2013-05-07 07:52:00,33.0,22.0,-100.00,East,80,0.0,4.0,64,0.00,,,0.00,0.000000,,2013-05-07 07:52:00,
2013-05-07 08:21:00,31.0,23.0,-100.00,SSW,213,0.0,1.0,73,0.00,,,0.00,0.000000,,2013-05-07 08:21:00,
2013-05-07 08:31:00,31.0,23.0,-100.00,SSW,213,0.0,1.0,73,0.00,,,0.00,0.000000,,2013-05-07 08:31:00,
2013-05-07 08:41:00,31.0,23.0,-100.00,SSW,213,0.0,1.0,73,0.00,,,0.00,0.000000,,2013-05-07 08:41:00,
2013-05-07 08:52:00,31.0,23.0,-100.00,SSW,213,0.0,1.0,73,0.00,,,0.00,0.000000,,2013-05-07 08:52:00,
2013-05-07 09:22:00,30.0,24.0,-100.00,SSE,163,0.0,1.0,77,0.00,,,0.00,0.000000,,2013-05-07 09:22:00,
2013-05-07 09:33:00,30.0,24.0,-100.00,SSE,163,0.0,1.0,77,0.00,,,0.00,0.000000,,2013-05-07 09:33:00,
2013-05-07 09:42:00,30.0,24.0,-100.00,SSE,163,0.0,1.0,77,0.00,,,0.00,0.000000,,2013-05-07 09:42:00,
2013-05-07 09:52:00,30.0,24.0,-100.00,SSE,163,0.0,1.0,77,0.00,,,0.00,0.000000,,2013-05-07 09:52:00,
2013-05-07 10:23:00,29.0,24.0,-100.00,South,169,0.0,1.0,80,0.00,,,0.00,0.000000,,2013-05-07 10:23:00,
2013-05-07 10:32:00,29.0,24.0,-100.00,South,169,0.0,1.0,80,0.00,,,0.00,0.000000,,2013-05-07 10:32:00,
2013-05-07 10:42:00,29.0,24.0,-100.00,South,169,0.0,1.0,80,0.00,,,0.00,0.000000,,2013-05-07 10:42:00,
2013-05-07 10:52:00,29.0,24.0,-100.00,South,169,0.0,1.0,80,0.00,,,0.00,0.000000,,2013-05-07 10:52:00,
2013-05-07 11:22:00,29.0,24.0,-100.00,South,186,1.0,2.0,80,0.00,,,0.00,0.000000,,2013-05-07 11:22:00,
2013-05-07 11:32:00,29.0,24.0,-100.00,South,186,1.0,2.0,80,0.00,,,0.00,0.000000,,2013-05-07 11:32:00,
2013-05-07 11:42:00,29.0,24.0,-100.00,South,186,1.0,2.0,80,0.00,,,0.00,0.000000,,2013-05-07 11:42:00,
2013-05-07 11:51:00,29.0,24.0,-100.00,South,186,1.0,2.0,80,0.00,,,0.00,0.000000,,2013-05-07 11:51:00,
2013-05-07 12:21:00,26.0,22.0,-100.00,South,178,0.0,1.0,86,0.00,,,0.00,0.000000,,2013-05-07 12:21:00,
2013-05-07 12:32:00,26.0,22.0,-100.00,South,178,0.0,1.0,86,0.00,,,0.00,0.000000,,2013-05-07 12:32:00,
2013-05-07 12:42:00,26.0,22.0,-100.00,South,178,0.0,1.0,86,0.00,,,0.00,0.000000,,2013-05-07 12:42:00,
2013-05-07 12:52:00,26.0,22.0,-100.00,South,178,0.0,1.0,86,0.00,,,0.00,0.000000,,2013-05-07 12:52:00,
2013-05-07 13:21:00,26.0,23.0,-100.00,SW,219,0.0,1.0,88,0.00,,,0.00,0.000000,,2013-05-07 13:21:00,
2013-05-07 13:32:00,26.0,23.0,-100.00,SW,219,0.0,1.0,88,0.00,,,0.00,0.000000,,2013-05-07 13:32:00,
2013-05-07 13:42:00,26.0,23.0,-100.00,SW,219,0.0,1.0,88,0.00,,,0.00,0.000000,,2013-05-07 13:42:00,
2013-05-07 13:52:00,26.0,23.0,-100.00,SW,219,0.0,1.0,88,0.00,,,0.00,0.000000,,2013-05-07 13:52:00,
2013-05-07 14:21:00,26.0,23.0,-100.00,SSW,193,0.0,2.0,87,0.00,,,0.00,17.000000,,2013-05-07 14:21:00,
2013-05-07 14:31:00,26.0,23.0,-100.00,SSW,193,0.0,2.0,87,0.00,,,0.00,17.000000,,2013-05-07 14:31:00,
2013-05-07 14:42:00,26.0,23.0,-100.00,SSW,193,0.0,2.0,87,0.00,,,0.00,17.000000,,2013-05-07 14:42:00,
2013-05-07 14:52:00,26.0,23.0,-100.00,SSW,193,0.0,2.0,87,0.00,,,0.00,17.000000,,2013-05-07 14:52:00,
2013-05-07 15:21:00,31.0,23.0,-100.00,SSW,192,0.0,2.0,73,0.00,,,0.00,90.000000,,2013-05-07 15:21:00,
2013-05-07 15:33:00,31.0,23.0,-100.00,SSW,192,0.0,2.0,73,0.00,,,0.00,90.000000,,2013-05-07 15:33:00,
2013-05-07 15:42:00,31.0,23.0,-100.00,SSW,192,0.0,2.0,73,0.00,,,0.00,90.000000,,2013-05-07 15:42:00,
2013-05-07 15:52:00,31.0,23.0,-100.00,SSW,192,0.0,2.0,73,0.00,,,0.00,90.000000,,2013-05-07 15:52:00,
2013-05-07 18:21:00,45.0,23.0,-100.00,North,4,2.0,4.0,42,-99.99,,,0.00,498.000000,,2013-05-07 18:21:00,
2013-05-07 18:31:00,45.0,23.0,-100.00,North,4,2.0,4.0,42,-99.99,,,0.00,498.000000,,2013-05-07 18:31:00,
2013-05-07 18:41:00,45.0,23.0,-100.00,North,4,2.0,4.0,42,-99.99,,,0.00,498.000000,,2013-05-07 18:41:00,
2013-05-07 18:51:00,45.0,23.0,-100.00,North,4,2.0,4.0,42,-99.99,,,0.00,498.000000,,2013-05-07 18:51:00,
2013-05-07 19:21:00,45.0,23.0,-100.00,WNW,289,3.0,9.0,41,0.00,,,0.00,519.000000,,2013-05-07 19:21:00,
2013-05-07 19:32:00,45.0,23.0,-100.00,WNW,289,3.0,9.0,41,0.00,,,0.00,519.000000,,2013-05-07 19:32:00,
2013-05-07 19:41:00,45.0,23.0,-100.00,WNW,289,3.0,9.0,41,0.00,,,0.00,519.000000,,2013-05-07 19:41:00,
2013-05-07 19:52:00,45.0,23.0,-100.00,WNW,289,3.0,9.0,41,0.00,,,0.00,519.000000,,2013-05-07 19:52:00,
2013-05-07 20:21:00,48.0,23.0,-100.00,NE,55,4.0,8.0,37,0.00,,,0.00,660.000000,,2013-05-07 20:21:00,
2013-05-07 20:32:00,48.0,23.0,-100.00,NE,55,4.0,8.0,37,0.00,,,0.00,660.000000,,2013-05-07 20:32:00,
2013-05-07 20:41:00,48.0,23.0,-100.00,NE,55,4.0,8.0,37,0.00,,,0.00,660.000000,,2013-05-07 20:41:00,
2013-05-07 20:51:00,48.0,23.0,-100.00,NE,55,4.0,8.0,37,0.00,,,0.00,660.000000,,2013-05-07 20:51:00,
2013-05-07 21:21:00,49.0,21.0,-100.00,NW,314,3.0,9.0,33,0.00,,,0.00,768.000000,,2013-05-07 21:21:00,
2013-05-07 21:32:00,49.0,21.0,-100.00,NW,314,3.0,9.0,33,0.00,,,0.00,768.000000,,2013-05-07 21:32:00,
2013-05-07 21:42:00,49.0,21.0,-100.00,NW,314,3.0,9.0,33,0.00,,,0.00,768.000000,,2013-05-07 21:42:00,
2013-05-07 21:52:00,49.0,21.0,-100.00,NW,314,3.0,9.0,33,0.00,,,0.00,768.000000,,2013-05-07 21:52:00,
2013-05-07 22:22:00,51.0,23.0,-100.00,NW,306,3.0,9.0,33,0.00,,,0.00,786.000000,,2013-05-07 22:22:00,
2013-05-07 22:32:00,51.0,23.0,-100.00,NW,306,3.0,9.0,33,0.00,,,0.00,786.000000,,2013-05-07 22:32:00,
2013-05-07 22:42:00,51.0,23.0,-100.00,NW,306,3.0,9.0,33,0.00,,,0.00,786.000000,,2013-05-07 22:42:00,
2013-05-07 22:52:00,51.0,23.0,-100.00,NW,306,3.0,9.0,33,0.00,,,0.00,786.000000,,2013-05-07 22:52:00,
2013-05-07 23:21:00,51.0,23.0,-100.00,NNW,345,3.0,9.0,33,0.00,,,0.00,641.000000,,2013-05-07 23:21:00,
2013-05-07 23:32:00,51.0,23.0,-100.00,NNW,345,3.0,9.0,33,0.00,,,0.00,641.000000,,2013-05-07 23:32:00,
2013-05-07 23:41:00,51.0,23.0,-100.00,NNW,345,3.0,9.0,33,0.00,,,0.00,641.000000,,2013-05-07 23:41:00,
2013-05-07 23:52:00,51.0,23.0,-100.00,NNW,345,3.0,9.0,33,0.00,,,0.00,641.000000,,2013-05-07 23:52:00,